sensor_id;sensor_type;location;lat;lon;timestamp;P1;durP1;ratioP1;P2;durP2;ratioP2
8626;SDS011;4351;51.422;6.794;2023-07-20T00:08:43;5.43;;;3.60;;
8626;SDS011;4351;51.422;6.794;2023-07-20T00:11:11;6.67;;;4.07;;
8626;SDS011;4351;51.422;6.794;2023-07-20T00:13:41;6.77;;;3.43;;
8626;SDS011;4351;51.422;6.794;2023-07-20T00:16:08;4.43;;;3.33;;
8626;SDS011;4351;51.422;6.794;2023-07-20T00:18:36;7.63;;;3.37;;
8626;SDS011;4351;51.422;6.794;2023-07-20T00:21:04;5.43;;;3.40;;
8626;SDS011;4351;51.422;6.794;2023-07-20T00:23:32;6.67;;;3.47;;
8626;SDS011;4351;51.422;6.794;2023-07-20T00:26:03;6.50;;;3.63;;
8626;SDS011;4351;51.422;6.794;2023-07-20T00:28:31;4.67;;;3.33;;
8626;SDS011;4351;51.422;6.794;2023-07-20T00:30:59;6.27;;;3.63;;
8626;SDS011;4351;51.422;6.794;2023-07-20T00:33:28;5.33;;;3.13;;
8626;SDS011;4351;51.422;6.794;2023-07-20T00:35:58;5.73;;;3.20;;
8626;SDS011;4351;51.422;6.794;2023-07-20T00:38:25;6.07;;;3.10;;
8626;SDS011;4351;51.422;6.794;2023-07-20T00:40:53;4.23;;;3.30;;
8626;SDS011;4351;51.422;6.794;2023-07-20T00:43:22;4.20;;;3.03;;
8626;SDS011;4351;51.422;6.794;2023-07-20T00:45:50;5.93;;;3.10;;
8626;SDS011;4351;51.422;6.794;2023-07-20T00:48:19;4.37;;;2.67;;
8626;SDS011;4351;51.422;6.794;2023-07-20T00:50:47;3.90;;;3.13;;
8626;SDS011;4351;51.422;6.794;2023-07-20T00:57:28;6.57;;;3.03;;
8626;SDS011;4351;51.422;6.794;2023-07-20T00:59:59;5.93;;;3.47;;
8626;SDS011;4351;51.422;6.794;2023-07-20T01:02:27;3.90;;;3.30;;
8626;SDS011;4351;51.422;6.794;2023-07-20T01:04:55;4.93;;;2.93;;
8626;SDS011;4351;51.422;6.794;2023-07-20T01:07:24;4.90;;;3.23;;
8626;SDS011;4351;51.422;6.794;2023-07-20T01:10:00;6.13;;;3.53;;
8626;SDS011;4351;51.422;6.794;2023-07-20T01:12:31;7.00;;;3.40;;
8626;SDS011;4351;51.422;6.794;2023-07-20T01:15:11;4.13;;;3.40;;
8626;SDS011;4351;51.422;6.794;2023-07-20T01:17:40;4.83;;;3.70;;
8626;SDS011;4351;51.422;6.794;2023-07-20T01:20:08;7.63;;;3.90;;
8626;SDS011;4351;51.422;6.794;2023-07-20T01:25:47;6.37;;;4.00;;
8626;SDS011;4351;51.422;6.794;2023-07-20T01:28:52;5.50;;;3.80;;
8626;SDS011;4351;51.422;6.794;2023-07-20T01:31:34;6.20;;;3.73;;
8626;SDS011;4351;51.422;6.794;2023-07-20T01:34:05;6.93;;;3.97;;
8626;SDS011;4351;51.422;6.794;2023-07-20T01:36:36;10.13;;;4.20;;
8626;SDS011;4351;51.422;6.794;2023-07-20T01:39:05;7.00;;;4.13;;
8626;SDS011;4351;51.422;6.794;2023-07-20T01:41:34;6.50;;;4.33;;
8626;SDS011;4351;51.422;6.794;2023-07-20T01:44:03;5.60;;;4.10;;
8626;SDS011;4351;51.422;6.794;2023-07-20T01:46:31;7.93;;;4.10;;
8626;SDS011;4351;51.422;6.794;2023-07-20T01:49:00;13.27;;;5.73;;
8626;SDS011;4351;51.422;6.794;2023-07-20T01:51:31;12.53;;;4.87;;
8626;SDS011;4351;51.422;6.794;2023-07-20T01:53:58;12.37;;;6.13;;
8626;SDS011;4351;51.422;6.794;2023-07-20T01:56:27;7.83;;;4.37;;
8626;SDS011;4351;51.422;6.794;2023-07-20T01:58:55;9.13;;;5.30;;
8626;SDS011;4351;51.422;6.794;2023-07-20T02:01:23;6.83;;;4.37;;
8626;SDS011;4351;51.422;6.794;2023-07-20T02:03:51;9.00;;;4.70;;
8626;SDS011;4351;51.422;6.794;2023-07-20T02:06:21;8.43;;;5.03;;
8626;SDS011;4351;51.422;6.794;2023-07-20T02:08:49;6.80;;;4.67;;
8626;SDS011;4351;51.422;6.794;2023-07-20T02:11:17;11.17;;;5.60;;
8626;SDS011;4351;51.422;6.794;2023-07-20T02:13:45;7.90;;;4.63;;
8626;SDS011;4351;51.422;6.794;2023-07-20T02:16:13;9.73;;;4.60;;
8626;SDS011;4351;51.422;6.794;2023-07-20T02:18:41;7.93;;;4.93;;
8626;SDS011;4351;51.422;6.794;2023-07-20T02:21:08;8.67;;;4.77;;
8626;SDS011;4351;51.422;6.794;2023-07-20T02:23:38;9.30;;;5.40;;
8626;SDS011;4351;51.422;6.794;2023-07-20T02:26:06;6.47;;;4.50;;
8626;SDS011;4351;51.422;6.794;2023-07-20T02:28:38;8.53;;;4.77;;
8626;SDS011;4351;51.422;6.794;2023-07-20T02:31:05;8.07;;;4.77;;
8626;SDS011;4351;51.422;6.794;2023-07-20T02:33:34;8.77;;;4.90;;
8626;SDS011;4351;51.422;6.794;2023-07-20T02:36:02;10.37;;;5.67;;
8626;SDS011;4351;51.422;6.794;2023-07-20T02:38:30;9.10;;;5.83;;
8626;SDS011;4351;51.422;6.794;2023-07-20T02:40:59;7.97;;;5.37;;
8626;SDS011;4351;51.422;6.794;2023-07-20T02:43:27;9.37;;;5.37;;
8626;SDS011;4351;51.422;6.794;2023-07-20T02:45:55;9.50;;;5.63;;
8626;SDS011;4351;51.422;6.794;2023-07-20T02:48:23;8.30;;;5.93;;
8626;SDS011;4351;51.422;6.794;2023-07-20T02:50:51;7.53;;;5.03;;
8626;SDS011;4351;51.422;6.794;2023-07-20T02:53:19;7.37;;;5.40;;
8626;SDS011;4351;51.422;6.794;2023-07-20T02:55:47;10.17;;;6.67;;
8626;SDS011;4351;51.422;6.794;2023-07-20T02:58:16;10.47;;;6.57;;
8626;SDS011;4351;51.422;6.794;2023-07-20T03:00:44;10.27;;;6.60;;
8626;SDS011;4351;51.422;6.794;2023-07-20T03:03:12;8.80;;;5.80;;
8626;SDS011;4351;51.422;6.794;2023-07-20T03:05:40;9.00;;;5.90;;
8626;SDS011;4351;51.422;6.794;2023-07-20T03:08:08;12.63;;;7.03;;
8626;SDS011;4351;51.422;6.794;2023-07-20T03:10:40;8.90;;;4.97;;
8626;SDS011;4351;51.422;6.794;2023-07-20T03:13:08;10.60;;;6.80;;
8626;SDS011;4351;51.422;6.794;2023-07-20T03:15:37;9.57;;;6.97;;
8626;SDS011;4351;51.422;6.794;2023-07-20T03:18:05;8.73;;;6.40;;
8626;SDS011;4351;51.422;6.794;2023-07-20T03:20:34;9.50;;;6.47;;
8626;SDS011;4351;51.422;6.794;2023-07-20T03:23:04;9.40;;;6.30;;
8626;SDS011;4351;51.422;6.794;2023-07-20T03:25:32;11.23;;;6.73;;
8626;SDS011;4351;51.422;6.794;2023-07-20T03:28:00;12.60;;;7.50;;
8626;SDS011;4351;51.422;6.794;2023-07-20T03:30:28;13.00;;;6.93;;
8626;SDS011;4351;51.422;6.794;2023-07-20T03:32:57;12.10;;;6.63;;
8626;SDS011;4351;51.422;6.794;2023-07-20T03:35:25;9.27;;;6.83;;
8626;SDS011;4351;51.422;6.794;2023-07-20T03:37:53;12.13;;;7.40;;
8626;SDS011;4351;51.422;6.794;2023-07-20T03:40:21;12.83;;;6.63;;
8626;SDS011;4351;51.422;6.794;2023-07-20T03:42:49;11.47;;;7.60;;
8626;SDS011;4351;51.422;6.794;2023-07-20T03:45:17;10.50;;;6.80;;
8626;SDS011;4351;51.422;6.794;2023-07-20T03:47:45;9.43;;;6.57;;
8626;SDS011;4351;51.422;6.794;2023-07-20T03:50:16;10.43;;;7.57;;
8626;SDS011;4351;51.422;6.794;2023-07-20T03:52:44;11.30;;;7.50;;
8626;SDS011;4351;51.422;6.794;2023-07-20T03:55:12;10.73;;;7.03;;
8626;SDS011;4351;51.422;6.794;2023-07-20T03:57:40;10.87;;;7.27;;
8626;SDS011;4351;51.422;6.794;2023-07-20T04:00:08;13.10;;;8.07;;
8626;SDS011;4351;51.422;6.794;2023-07-20T04:02:38;12.90;;;8.10;;
8626;SDS011;4351;51.422;6.794;2023-07-20T04:05:06;11.10;;;8.00;;
8626;SDS011;4351;51.422;6.794;2023-07-20T04:07:36;11.30;;;8.17;;
8626;SDS011;4351;51.422;6.794;2023-07-20T04:10:04;11.40;;;8.07;;
8626;SDS011;4351;51.422;6.794;2023-07-20T04:12:34;14.57;;;9.23;;
8626;SDS011;4351;51.422;6.794;2023-07-20T04:15:03;15.20;;;10.87;;
8626;SDS011;4351;51.422;6.794;2023-07-20T04:17:32;18.20;;;12.00;;
8626;SDS011;4351;51.422;6.794;2023-07-20T04:20:00;21.80;;;13.97;;
8626;SDS011;4351;51.422;6.794;2023-07-20T04:22:29;15.20;;;12.17;;
8626;SDS011;4351;51.422;6.794;2023-07-20T04:24:58;19.20;;;14.17;;
8626;SDS011;4351;51.422;6.794;2023-07-20T04:27:26;21.10;;;15.57;;
8626;SDS011;4351;51.422;6.794;2023-07-20T04:29:54;16.80;;;13.83;;
8626;SDS011;4351;51.422;6.794;2023-07-20T04:32:22;16.07;;;13.33;;
8626;SDS011;4351;51.422;6.794;2023-07-20T04:34:51;17.03;;;13.17;;
8626;SDS011;4351;51.422;6.794;2023-07-20T04:37:19;19.27;;;14.10;;
8626;SDS011;4351;51.422;6.794;2023-07-20T04:39:47;16.70;;;12.50;;
8626;SDS011;4351;51.422;6.794;2023-07-20T04:42:17;18.63;;;12.97;;
8626;SDS011;4351;51.422;6.794;2023-07-20T04:44:46;22.20;;;15.53;;
8626;SDS011;4351;51.422;6.794;2023-07-20T04:47:15;18.37;;;13.70;;
8626;SDS011;4351;51.422;6.794;2023-07-20T04:49:43;18.07;;;14.30;;
8626;SDS011;4351;51.422;6.794;2023-07-20T04:52:11;17.33;;;14.30;;
8626;SDS011;4351;51.422;6.794;2023-07-20T04:54:39;17.60;;;13.60;;
8626;SDS011;4351;51.422;6.794;2023-07-20T04:57:09;14.97;;;12.63;;
8626;SDS011;4351;51.422;6.794;2023-07-20T04:59:44;15.57;;;12.07;;
8626;SDS011;4351;51.422;6.794;2023-07-20T05:02:12;16.47;;;11.60;;
8626;SDS011;4351;51.422;6.794;2023-07-20T05:04:40;18.07;;;12.73;;
8626;SDS011;4351;51.422;6.794;2023-07-20T05:07:08;18.97;;;13.30;;
8626;SDS011;4351;51.422;6.794;2023-07-20T05:09:36;13.73;;;11.27;;
8626;SDS011;4351;51.422;6.794;2023-07-20T05:12:04;16.50;;;11.83;;
8626;SDS011;4351;51.422;6.794;2023-07-20T05:14:32;17.00;;;13.33;;
8626;SDS011;4351;51.422;6.794;2023-07-20T05:17:01;18.10;;;12.17;;
8626;SDS011;4351;51.422;6.794;2023-07-20T05:19:29;15.20;;;12.00;;
8626;SDS011;4351;51.422;6.794;2023-07-20T05:21:57;14.67;;;11.20;;
8626;SDS011;4351;51.422;6.794;2023-07-20T05:24:25;16.00;;;12.00;;
8626;SDS011;4351;51.422;6.794;2023-07-20T05:26:53;14.50;;;11.07;;
8626;SDS011;4351;51.422;6.794;2023-07-20T05:29:21;12.93;;;10.27;;
8626;SDS011;4351;51.422;6.794;2023-07-20T05:31:49;16.07;;;10.30;;
8626;SDS011;4351;51.422;6.794;2023-07-20T05:34:18;11.63;;;9.30;;
8626;SDS011;4351;51.422;6.794;2023-07-20T05:36:47;9.73;;;7.13;;
8626;SDS011;4351;51.422;6.794;2023-07-20T05:39:16;10.67;;;5.93;;
8626;SDS011;4351;51.422;6.794;2023-07-20T05:41:44;8.57;;;6.10;;
8626;SDS011;4351;51.422;6.794;2023-07-20T05:44:12;10.00;;;6.73;;
8626;SDS011;4351;51.422;6.794;2023-07-20T05:46:40;9.27;;;5.37;;
8626;SDS011;4351;51.422;6.794;2023-07-20T05:49:24;10.83;;;5.50;;
8626;SDS011;4351;51.422;6.794;2023-07-20T05:51:52;7.17;;;4.87;;
8626;SDS011;4351;51.422;6.794;2023-07-20T05:54:20;6.43;;;5.20;;
8626;SDS011;4351;51.422;6.794;2023-07-20T05:56:48;7.37;;;5.40;;
8626;SDS011;4351;51.422;6.794;2023-07-20T05:59:15;7.80;;;5.43;;
8626;SDS011;4351;51.422;6.794;2023-07-20T06:01:43;8.20;;;6.23;;
8626;SDS011;4351;51.422;6.794;2023-07-20T06:04:11;7.87;;;5.50;;
8626;SDS011;4351;51.422;6.794;2023-07-20T06:06:41;8.30;;;5.70;;
8626;SDS011;4351;51.422;6.794;2023-07-20T06:09:09;7.47;;;5.30;;
8626;SDS011;4351;51.422;6.794;2023-07-20T06:11:38;7.23;;;5.07;;
8626;SDS011;4351;51.422;6.794;2023-07-20T06:14:06;8.17;;;5.93;;
8626;SDS011;4351;51.422;6.794;2023-07-20T06:16:34;9.13;;;6.80;;
8626;SDS011;4351;51.422;6.794;2023-07-20T06:19:02;11.07;;;6.67;;
8626;SDS011;4351;51.422;6.794;2023-07-20T06:21:30;8.97;;;6.60;;
8626;SDS011;4351;51.422;6.794;2023-07-20T06:23:59;7.90;;;6.57;;
8626;SDS011;4351;51.422;6.794;2023-07-20T06:26:27;9.37;;;6.40;;
8626;SDS011;4351;51.422;6.794;2023-07-20T06:28:56;10.73;;;7.60;;
8626;SDS011;4351;51.422;6.794;2023-07-20T06:31:24;7.13;;;6.00;;
8626;SDS011;4351;51.422;6.794;2023-07-20T06:33:52;9.30;;;6.40;;
8626;SDS011;4351;51.422;6.794;2023-07-20T06:36:21;10.67;;;8.10;;
8626;SDS011;4351;51.422;6.794;2023-07-20T06:38:52;12.37;;;8.87;;
8626;SDS011;4351;51.422;6.794;2023-07-20T06:41:24;12.40;;;9.80;;
8626;SDS011;4351;51.422;6.794;2023-07-20T06:43:55;13.33;;;11.07;;
8626;SDS011;4351;51.422;6.794;2023-07-20T06:46:24;16.23;;;11.73;;
8626;SDS011;4351;51.422;6.794;2023-07-20T06:48:53;21.67;;;17.53;;
8626;SDS011;4351;51.422;6.794;2023-07-20T06:51:25;21.47;;;17.50;;
8626;SDS011;4351;51.422;6.794;2023-07-20T06:53:52;29.70;;;24.13;;
8626;SDS011;4351;51.422;6.794;2023-07-20T06:56:20;29.83;;;22.00;;
8626;SDS011;4351;51.422;6.794;2023-07-20T06:58:52;27.80;;;21.77;;
8626;SDS011;4351;51.422;6.794;2023-07-20T07:01:21;27.77;;;19.87;;
8626;SDS011;4351;51.422;6.794;2023-07-20T07:03:49;31.57;;;23.97;;
8626;SDS011;4351;51.422;6.794;2023-07-20T07:06:21;29.10;;;22.33;;
8626;SDS011;4351;51.422;6.794;2023-07-20T07:08:50;27.33;;;21.00;;
8626;SDS011;4351;51.422;6.794;2023-07-20T07:11:18;29.83;;;22.50;;
8626;SDS011;4351;51.422;6.794;2023-07-20T07:13:47;29.73;;;23.27;;
8626;SDS011;4351;51.422;6.794;2023-07-20T07:16:18;20.17;;;13.40;;
8626;SDS011;4351;51.422;6.794;2023-07-20T07:18:46;15.27;;;11.27;;
8626;SDS011;4351;51.422;6.794;2023-07-20T07:21:14;14.23;;;10.87;;
8626;SDS011;4351;51.422;6.794;2023-07-20T07:23:42;13.70;;;9.90;;
8626;SDS011;4351;51.422;6.794;2023-07-20T07:26:11;17.57;;;11.37;;
8626;SDS011;4351;51.422;6.794;2023-07-20T07:28:39;15.23;;;9.90;;
8626;SDS011;4351;51.422;6.794;2023-07-20T07:31:07;14.27;;;10.10;;
8626;SDS011;4351;51.422;6.794;2023-07-20T07:33:36;12.30;;;9.20;;
8626;SDS011;4351;51.422;6.794;2023-07-20T07:36:05;20.03;;;12.60;;
8626;SDS011;4351;51.422;6.794;2023-07-20T07:38:32;17.57;;;13.27;;
8626;SDS011;4351;51.422;6.794;2023-07-20T07:41:20;11.40;;;9.67;;
8626;SDS011;4351;51.422;6.794;2023-07-20T07:43:48;13.40;;;9.67;;
8626;SDS011;4351;51.422;6.794;2023-07-20T07:46:17;12.63;;;9.37;;
8626;SDS011;4351;51.422;6.794;2023-07-20T07:48:46;13.40;;;9.63;;
8626;SDS011;4351;51.422;6.794;2023-07-20T07:51:14;19.57;;;12.03;;
8626;SDS011;4351;51.422;6.794;2023-07-20T07:53:42;18.17;;;11.77;;
8626;SDS011;4351;51.422;6.794;2023-07-20T07:56:10;12.70;;;8.50;;
8626;SDS011;4351;51.422;6.794;2023-07-20T07:58:38;10.43;;;7.77;;
8626;SDS011;4351;51.422;6.794;2023-07-20T08:01:06;12.17;;;7.67;;
8626;SDS011;4351;51.422;6.794;2023-07-20T08:03:34;10.33;;;7.43;;
8626;SDS011;4351;51.422;6.794;2023-07-20T08:06:04;12.20;;;7.30;;
8626;SDS011;4351;51.422;6.794;2023-07-20T08:08:32;11.07;;;6.93;;
8626;SDS011;4351;51.422;6.794;2023-07-20T08:11:02;7.53;;;5.47;;
8626;SDS011;4351;51.422;6.794;2023-07-20T08:13:33;7.83;;;5.40;;
8626;SDS011;4351;51.422;6.794;2023-07-20T08:16:01;7.10;;;5.17;;
8626;SDS011;4351;51.422;6.794;2023-07-20T08:18:29;10.53;;;5.50;;
8626;SDS011;4351;51.422;6.794;2023-07-20T08:20:57;7.60;;;5.50;;
8626;SDS011;4351;51.422;6.794;2023-07-20T08:23:27;12.80;;;10.00;;
8626;SDS011;4351;51.422;6.794;2023-07-20T08:25:55;14.57;;;9.53;;
8626;SDS011;4351;51.422;6.794;2023-07-20T08:28:23;11.07;;;8.10;;
8626;SDS011;4351;51.422;6.794;2023-07-20T08:30:52;14.60;;;12.30;;
8626;SDS011;4351;51.422;6.794;2023-07-20T08:33:20;19.97;;;13.80;;
8626;SDS011;4351;51.422;6.794;2023-07-20T08:35:49;13.87;;;10.60;;
8626;SDS011;4351;51.422;6.794;2023-07-20T08:38:17;13.80;;;10.23;;
8626;SDS011;4351;51.422;6.794;2023-07-20T08:40:47;12.43;;;9.03;;
8626;SDS011;4351;51.422;6.794;2023-07-20T08:43:15;12.90;;;8.43;;
8626;SDS011;4351;51.422;6.794;2023-07-20T08:45:45;6.60;;;3.93;;
8626;SDS011;4351;51.422;6.794;2023-07-20T08:48:16;5.27;;;4.30;;
8626;SDS011;4351;51.422;6.794;2023-07-20T08:50:46;6.50;;;5.87;;
8626;SDS011;4351;51.422;6.794;2023-07-20T08:53:16;7.90;;;6.50;;
8626;SDS011;4351;51.422;6.794;2023-07-20T08:55:45;7.67;;;6.70;;
8626;SDS011;4351;51.422;6.794;2023-07-20T08:58:16;9.10;;;8.23;;
8626;SDS011;4351;51.422;6.794;2023-07-20T09:00:44;7.80;;;6.50;;
8626;SDS011;4351;51.422;6.794;2023-07-20T09:03:13;7.73;;;7.03;;
8626;SDS011;4351;51.422;6.794;2023-07-20T09:05:42;6.63;;;4.93;;
8626;SDS011;4351;51.422;6.794;2023-07-20T09:08:10;5.83;;;3.60;;
8626;SDS011;4351;51.422;6.794;2023-07-20T09:10:38;4.60;;;3.00;;
8626;SDS011;4351;51.422;6.794;2023-07-20T09:13:07;6.27;;;3.83;;
8626;SDS011;4351;51.422;6.794;2023-07-20T09:15:36;6.10;;;2.70;;
8626;SDS011;4351;51.422;6.794;2023-07-20T09:18:04;5.87;;;2.40;;
8626;SDS011;4351;51.422;6.794;2023-07-20T09:20:32;3.80;;;2.20;;
8626;SDS011;4351;51.422;6.794;2023-07-20T09:23:03;2.80;;;2.20;;
8626;SDS011;4351;51.422;6.794;2023-07-20T09:25:32;5.20;;;2.60;;
8626;SDS011;4351;51.422;6.794;2023-07-20T09:28:02;4.87;;;2.30;;
8626;SDS011;4351;51.422;6.794;2023-07-20T09:30:33;3.40;;;2.10;;
8626;SDS011;4351;51.422;6.794;2023-07-20T09:33:01;5.63;;;2.07;;
8626;SDS011;4351;51.422;6.794;2023-07-20T09:35:29;4.13;;;2.37;;
8626;SDS011;4351;51.422;6.794;2023-07-20T09:38:08;3.80;;;1.90;;
8626;SDS011;4351;51.422;6.794;2023-07-20T09:40:39;2.77;;;1.67;;
8626;SDS011;4351;51.422;6.794;2023-07-20T09:43:10;3.13;;;2.20;;
8626;SDS011;4351;51.422;6.794;2023-07-20T09:45:43;3.40;;;1.83;;
8626;SDS011;4351;51.422;6.794;2023-07-20T09:48:14;3.93;;;1.90;;
8626;SDS011;4351;51.422;6.794;2023-07-20T09:50:48;2.13;;;1.47;;
8626;SDS011;4351;51.422;6.794;2023-07-20T09:53:17;2.10;;;1.43;;
8626;SDS011;4351;51.422;6.794;2023-07-20T09:55:46;1.10;;;1.00;;
8626;SDS011;4351;51.422;6.794;2023-07-20T09:58:15;2.70;;;1.20;;
8626;SDS011;4351;51.422;6.794;2023-07-20T10:00:45;3.43;;;1.50;;
8626;SDS011;4351;51.422;6.794;2023-07-20T10:03:19;3.43;;;1.70;;
8626;SDS011;4351;51.422;6.794;2023-07-20T10:05:51;2.73;;;1.80;;
8626;SDS011;4351;51.422;6.794;2023-07-20T10:08:23;2.77;;;1.90;;
8626;SDS011;4351;51.422;6.794;2023-07-20T10:10:55;3.23;;;1.87;;
8626;SDS011;4351;51.422;6.794;2023-07-20T10:13:27;2.83;;;2.00;;
8626;SDS011;4351;51.422;6.794;2023-07-20T10:16:01;4.70;;;2.40;;
8626;SDS011;4351;51.422;6.794;2023-07-20T10:18:31;6.17;;;2.57;;
8626;SDS011;4351;51.422;6.794;2023-07-20T10:21:05;4.47;;;2.20;;
8626;SDS011;4351;51.422;6.794;2023-07-20T10:23:37;3.93;;;1.97;;
8626;SDS011;4351;51.422;6.794;2023-07-20T10:26:06;2.50;;;1.20;;
8626;SDS011;4351;51.422;6.794;2023-07-20T10:28:35;2.00;;;1.20;;
8626;SDS011;4351;51.422;6.794;2023-07-20T10:31:05;2.73;;;1.00;;
8626;SDS011;4351;51.422;6.794;2023-07-20T10:33:35;2.87;;;0.90;;
8626;SDS011;4351;51.422;6.794;2023-07-20T10:36:05;0.93;;;0.70;;
8626;SDS011;4351;51.422;6.794;2023-07-20T10:38:40;1.73;;;0.83;;
8626;SDS011;4351;51.422;6.794;2023-07-20T10:41:18;2.40;;;1.07;;
8626;SDS011;4351;51.422;6.794;2023-07-20T10:43:47;1.70;;;1.20;;
8626;SDS011;4351;51.422;6.794;2023-07-20T10:46:34;1.90;;;1.17;;
8626;SDS011;4351;51.422;6.794;2023-07-20T10:49:10;2.90;;;1.60;;
8626;SDS011;4351;51.422;6.794;2023-07-20T10:51:39;4.03;;;2.20;;
8626;SDS011;4351;51.422;6.794;2023-07-20T10:54:08;2.70;;;2.00;;
8626;SDS011;4351;51.422;6.794;2023-07-20T10:56:36;4.87;;;2.30;;
8626;SDS011;4351;51.422;6.794;2023-07-20T10:59:16;4.60;;;1.80;;
8626;SDS011;4351;51.422;6.794;2023-07-20T11:01:47;2.83;;;1.83;;
8626;SDS011;4351;51.422;6.794;2023-07-20T11:04:16;2.23;;;1.60;;
8626;SDS011;4351;51.422;6.794;2023-07-20T11:06:45;2.73;;;1.30;;
8626;SDS011;4351;51.422;6.794;2023-07-20T11:09:14;1.93;;;1.40;;
8626;SDS011;4351;51.422;6.794;2023-07-20T11:11:43;1.60;;;1.30;;
8626;SDS011;4351;51.422;6.794;2023-07-20T11:14:19;2.27;;;1.30;;
8626;SDS011;4351;51.422;6.794;2023-07-20T11:16:50;1.90;;;1.43;;
8626;SDS011;4351;51.422;6.794;2023-07-20T11:19:20;2.10;;;1.30;;
8626;SDS011;4351;51.422;6.794;2023-07-20T11:21:53;1.70;;;1.20;;
8626;SDS011;4351;51.422;6.794;2023-07-20T11:24:29;2.40;;;0.90;;
8626;SDS011;4351;51.422;6.794;2023-07-20T11:26:57;1.07;;;0.90;;
8626;SDS011;4351;51.422;6.794;2023-07-20T11:29:26;1.43;;;0.90;;
8626;SDS011;4351;51.422;6.794;2023-07-20T11:32:01;3.33;;;1.20;;
8626;SDS011;4351;51.422;6.794;2023-07-20T11:34:31;1.67;;;0.90;;
8626;SDS011;4351;51.422;6.794;2023-07-20T11:37:01;3.17;;;1.10;;
8626;SDS011;4351;51.422;6.794;2023-07-20T11:39:33;1.50;;;0.93;;
8626;SDS011;4351;51.422;6.794;2023-07-20T11:42:02;1.50;;;1.10;;
8626;SDS011;4351;51.422;6.794;2023-07-20T11:44:30;1.83;;;0.90;;
8626;SDS011;4351;51.422;6.794;2023-07-20T11:47:00;3.60;;;1.10;;
8626;SDS011;4351;51.422;6.794;2023-07-20T11:49:30;5.70;;;1.23;;
8626;SDS011;4351;51.422;6.794;2023-07-20T11:52:03;1.80;;;0.80;;
8626;SDS011;4351;51.422;6.794;2023-07-20T11:54:32;2.30;;;1.17;;
8626;SDS011;4351;51.422;6.794;2023-07-20T11:57:01;1.33;;;0.93;;
8626;SDS011;4351;51.422;6.794;2023-07-20T11:59:30;1.00;;;0.90;;
8626;SDS011;4351;51.422;6.794;2023-07-20T12:01:58;3.17;;;1.13;;
8626;SDS011;4351;51.422;6.794;2023-07-20T12:04:30;2.00;;;1.10;;
8626;SDS011;4351;51.422;6.794;2023-07-20T12:06:58;2.07;;;1.10;;
8626;SDS011;4351;51.422;6.794;2023-07-20T12:09:27;1.23;;;0.80;;
8626;SDS011;4351;51.422;6.794;2023-07-20T12:12:09;1.07;;;0.80;;
8626;SDS011;4351;51.422;6.794;2023-07-20T12:14:38;1.40;;;0.90;;
8626;SDS011;4351;51.422;6.794;2023-07-20T12:17:07;3.53;;;0.90;;
8626;SDS011;4351;51.422;6.794;2023-07-20T12:19:39;1.57;;;1.00;;
8626;SDS011;4351;51.422;6.794;2023-07-20T12:22:07;1.00;;;0.80;;
8626;SDS011;4351;51.422;6.794;2023-07-20T12:24:35;4.00;;;0.97;;
8626;SDS011;4351;51.422;6.794;2023-07-20T12:27:03;2.40;;;0.97;;
8626;SDS011;4351;51.422;6.794;2023-07-20T12:29:31;2.20;;;1.00;;
8626;SDS011;4351;51.422;6.794;2023-07-20T12:32:02;1.00;;;0.90;;
8626;SDS011;4351;51.422;6.794;2023-07-20T12:34:31;1.70;;;1.07;;
8626;SDS011;4351;51.422;6.794;2023-07-20T12:37:00;1.57;;;1.00;;
8626;SDS011;4351;51.422;6.794;2023-07-20T12:39:30;1.13;;;1.03;;
8626;SDS011;4351;51.422;6.794;2023-07-20T12:41:59;1.33;;;1.13;;
8626;SDS011;4351;51.422;6.794;2023-07-20T12:44:27;1.53;;;1.03;;
8626;SDS011;4351;51.422;6.794;2023-07-20T12:46:55;0.80;;;0.80;;
8626;SDS011;4351;51.422;6.794;2023-07-20T12:49:24;1.17;;;0.80;;
8626;SDS011;4351;51.422;6.794;2023-07-20T12:51:54;2.27;;;0.93;;
8626;SDS011;4351;51.422;6.794;2023-07-20T12:54:23;1.33;;;0.80;;
8626;SDS011;4351;51.422;6.794;2023-07-20T12:56:52;1.97;;;0.90;;
8626;SDS011;4351;51.422;6.794;2023-07-20T12:59:25;0.97;;;0.80;;
8626;SDS011;4351;51.422;6.794;2023-07-20T13:01:54;1.67;;;0.90;;
8626;SDS011;4351;51.422;6.794;2023-07-20T13:04:22;2.77;;;1.20;;
8626;SDS011;4351;51.422;6.794;2023-07-20T13:06:51;2.77;;;0.83;;
8626;SDS011;4351;51.422;6.794;2023-07-20T13:09:20;3.33;;;1.13;;
8626;SDS011;4351;51.422;6.794;2023-07-20T13:11:49;1.97;;;0.90;;
8626;SDS011;4351;51.422;6.794;2023-07-20T13:14:18;1.10;;;0.70;;
8626;SDS011;4351;51.422;6.794;2023-07-20T13:16:46;1.67;;;0.90;;
8626;SDS011;4351;51.422;6.794;2023-07-20T13:19:15;2.57;;;0.70;;
8626;SDS011;4351;51.422;6.794;2023-07-20T13:21:43;1.53;;;0.90;;
8626;SDS011;4351;51.422;6.794;2023-07-20T13:24:16;1.53;;;0.80;;
8626;SDS011;4351;51.422;6.794;2023-07-20T13:26:45;1.60;;;0.80;;
8626;SDS011;4351;51.422;6.794;2023-07-20T13:29:15;1.37;;;0.90;;
8626;SDS011;4351;51.422;6.794;2023-07-20T13:31:43;2.93;;;0.90;;
8626;SDS011;4351;51.422;6.794;2023-07-20T13:34:15;1.83;;;0.70;;
8626;SDS011;4351;51.422;6.794;2023-07-20T13:36:45;1.83;;;1.03;;
8626;SDS011;4351;51.422;6.794;2023-07-20T13:39:15;2.33;;;0.70;;
8626;SDS011;4351;51.422;6.794;2023-07-20T13:41:44;1.63;;;0.90;;
8626;SDS011;4351;51.422;6.794;2023-07-20T13:44:15;1.03;;;0.80;;
8626;SDS011;4351;51.422;6.794;2023-07-20T13:46:48;1.40;;;0.80;;
8626;SDS011;4351;51.422;6.794;2023-07-20T13:49:20;1.43;;;0.80;;
8626;SDS011;4351;51.422;6.794;2023-07-20T13:51:49;1.40;;;0.90;;
8626;SDS011;4351;51.422;6.794;2023-07-20T13:54:25;1.70;;;0.60;;
8626;SDS011;4351;51.422;6.794;2023-07-20T13:56:54;0.80;;;0.80;;
8626;SDS011;4351;51.422;6.794;2023-07-20T13:59:27;1.43;;;0.70;;
8626;SDS011;4351;51.422;6.794;2023-07-20T14:01:58;1.10;;;1.00;;
8626;SDS011;4351;51.422;6.794;2023-07-20T14:04:29;1.27;;;0.70;;
8626;SDS011;4351;51.422;6.794;2023-07-20T14:07:00;1.33;;;0.90;;
8626;SDS011;4351;51.422;6.794;2023-07-20T14:09:29;2.60;;;0.70;;
8626;SDS011;4351;51.422;6.794;2023-07-20T14:11:57;1.03;;;0.70;;
8626;SDS011;4351;51.422;6.794;2023-07-20T14:14:30;1.07;;;0.80;;
8626;SDS011;4351;51.422;6.794;2023-07-20T14:16:59;1.20;;;0.70;;
8626;SDS011;4351;51.422;6.794;2023-07-20T14:19:27;0.90;;;0.70;;
8626;SDS011;4351;51.422;6.794;2023-07-20T14:21:56;1.20;;;0.93;;
8626;SDS011;4351;51.422;6.794;2023-07-20T14:24:29;1.10;;;1.00;;
8626;SDS011;4351;51.422;6.794;2023-07-20T14:26:57;1.83;;;1.10;;
8626;SDS011;4351;51.422;6.794;2023-07-20T14:29:27;1.27;;;0.90;;
8626;SDS011;4351;51.422;6.794;2023-07-20T14:31:59;1.10;;;0.90;;
8626;SDS011;4351;51.422;6.794;2023-07-20T14:34:27;1.40;;;0.90;;
8626;SDS011;4351;51.422;6.794;2023-07-20T14:36:57;3.10;;;1.20;;
8626;SDS011;4351;51.422;6.794;2023-07-20T14:39:26;2.43;;;1.00;;
8626;SDS011;4351;51.422;6.794;2023-07-20T14:41:54;1.00;;;0.90;;
8626;SDS011;4351;51.422;6.794;2023-07-20T14:44:22;1.10;;;0.77;;
8626;SDS011;4351;51.422;6.794;2023-07-20T14:46:51;1.43;;;0.90;;
8626;SDS011;4351;51.422;6.794;2023-07-20T14:49:39;1.13;;;0.80;;
8626;SDS011;4351;51.422;6.794;2023-07-20T14:52:07;1.13;;;0.77;;
8626;SDS011;4351;51.422;6.794;2023-07-20T14:54:39;1.87;;;0.70;;
8626;SDS011;4351;51.422;6.794;2023-07-20T14:57:07;1.50;;;1.10;;
8626;SDS011;4351;51.422;6.794;2023-07-20T14:59:41;2.50;;;1.00;;
8626;SDS011;4351;51.422;6.794;2023-07-20T15:02:10;2.00;;;1.00;;
8626;SDS011;4351;51.422;6.794;2023-07-20T15:04:39;1.97;;;1.13;;
8626;SDS011;4351;51.422;6.794;2023-07-20T15:07:13;1.80;;;0.97;;
8626;SDS011;4351;51.422;6.794;2023-07-20T15:09:41;4.20;;;1.10;;
8626;SDS011;4351;51.422;6.794;2023-07-20T15:12:12;3.80;;;1.10;;
8626;SDS011;4351;51.422;6.794;2023-07-20T15:14:40;1.00;;;0.90;;
8626;SDS011;4351;51.422;6.794;2023-07-20T15:17:09;1.00;;;0.80;;
8626;SDS011;4351;51.422;6.794;2023-07-20T15:19:40;1.37;;;0.90;;
8626;SDS011;4351;51.422;6.794;2023-07-20T15:22:08;1.57;;;1.03;;
8626;SDS011;4351;51.422;6.794;2023-07-20T15:24:36;3.63;;;1.10;;
8626;SDS011;4351;51.422;6.794;2023-07-20T15:27:04;2.27;;;1.03;;
8626;SDS011;4351;51.422;6.794;2023-07-20T15:29:34;1.27;;;0.93;;
8626;SDS011;4351;51.422;6.794;2023-07-20T15:32:02;1.03;;;0.90;;
8626;SDS011;4351;51.422;6.794;2023-07-20T15:34:31;1.67;;;1.00;;
8626;SDS011;4351;51.422;6.794;2023-07-20T15:37:00;1.50;;;0.90;;